createdAt,value
2018-06-27T00:01:05.561Z,102648.88
2018-06-27T00:03:33.809Z,102648.77
2018-06-27T00:06:02.097Z,102647.06
2018-06-27T00:08:30.352Z,102654.17
2018-06-27T00:10:58.601Z,102647.91
2018-06-27T00:13:26.869Z,102648.50
2018-06-27T00:15:55.137Z,102651.37
2018-06-27T00:18:23.415Z,102653.74
2018-06-27T00:20:51.752Z,102649.69
2018-06-27T00:23:20.018Z,102648.13
2018-06-27T00:25:48.273Z,102647.62
2018-06-27T00:28:16.587Z,102648.84
2018-06-27T00:30:44.857Z,102654.02
2018-06-27T00:33:13.149Z,102651.00
2018-06-27T00:35:41.494Z,102645.00
2018-06-27T00:38:14.745Z,102647.30
2018-06-27T00:40:43.207Z,102646.69
2018-06-27T00:43:11.569Z,102646.44
2018-06-27T00:45:39.863Z,102647.26
2018-06-27T00:48:08.577Z,102646.76
2018-06-27T00:50:37.033Z,102647.45
2018-06-27T00:53:05.532Z,102644.36
2018-06-27T00:55:33.785Z,102646.39
2018-06-27T00:58:02.114Z,102649.52
2018-06-27T01:00:30.464Z,102648.30
2018-06-27T01:02:58.925Z,102648.50
2018-06-27T01:05:27.429Z,102647.39
2018-06-27T01:07:55.769Z,102651.15
2018-06-27T01:10:24.070Z,102646.55
2018-06-27T01:12:52.369Z,102655.23
2018-06-27T01:15:20.637Z,102658.72
2018-06-27T01:17:52.988Z,102661.05
2018-06-27T01:20:21.265Z,102657.55
2018-06-27T01:22:49.845Z,102658.44
2018-06-27T01:25:18.354Z,102661.56
2018-06-27T01:27:47.103Z,102657.93
2018-06-27T01:30:15.411Z,102665.94
2018-06-27T01:32:43.677Z,102664.30
2018-06-27T01:35:12.161Z,102664.53
2018-06-27T01:37:40.413Z,102662.68
2018-06-27T01:40:08.689Z,102659.28
2018-06-27T01:42:36.942Z,102665.61
2018-06-27T01:45:05.265Z,102667.26
2018-06-27T01:47:33.524Z,102665.50
2018-06-27T01:50:02.181Z,102662.38
2018-06-27T01:52:30.441Z,102659.20
2018-06-27T01:54:58.699Z,102655.32
2018-06-27T01:57:27.005Z,102657.84
2018-06-27T01:59:55.260Z,102652.56
2018-06-27T02:02:23.722Z,102650.84
2018-06-27T02:04:51.962Z,102650.05
2018-06-27T02:07:20.227Z,102657.86
2018-06-27T02:09:48.465Z,102654.53
2018-06-27T02:12:16.741Z,102655.00
2018-06-27T02:14:44.986Z,102659.39
2018-06-27T02:17:13.269Z,102657.33
2018-06-27T02:19:41.541Z,102662.74
2018-06-27T02:22:09.895Z,102663.16
2018-06-27T02:24:38.148Z,102664.89
2018-06-27T02:27:06.478Z,102661.21
2018-06-27T02:29:34.736Z,102662.53
2018-06-27T02:32:03.081Z,102667.45
2018-06-27T02:34:31.350Z,102658.34
2018-06-27T02:36:59.745Z,102656.94
2018-06-27T02:39:28.009Z,102662.09
2018-06-27T02:41:56.308Z,102666.05
2018-06-27T02:44:24.569Z,102660.30
2018-06-27T02:46:52.941Z,102656.86
2018-06-27T02:49:21.229Z,102658.02
2018-06-27T02:51:49.590Z,102661.78
2018-06-27T02:54:17.995Z,102661.98
2018-06-27T02:56:46.271Z,102663.90
2018-06-27T02:59:14.585Z,102668.38
2018-06-27T03:01:42.906Z,102677.34
2018-06-27T03:04:11.246Z,102676.14
2018-06-27T03:06:39.518Z,102674.14
2018-06-27T03:09:09.526Z,102679.45
2018-06-27T03:11:38.017Z,102675.30
2018-06-27T03:14:06.473Z,102685.81
2018-06-27T03:16:34.777Z,102684.69
2018-06-27T03:19:03.089Z,102682.38
2018-06-27T03:21:31.358Z,102686.79
2018-06-27T03:23:59.745Z,102683.55
2018-06-27T03:26:28.003Z,102683.03
2018-06-27T03:28:56.284Z,102688.59
2018-06-27T03:31:24.562Z,102686.47
2018-06-27T03:33:52.857Z,102689.34
2018-06-27T03:36:21.121Z,102688.52
2018-06-27T03:38:49.373Z,102687.79
2018-06-27T03:41:17.701Z,102688.83
2018-06-27T03:43:45.965Z,102691.59
2018-06-27T03:46:14.271Z,102684.06
2018-06-27T03:48:42.537Z,102691.16
2018-06-27T03:51:10.820Z,102690.11
2018-06-27T03:53:40.309Z,102689.19
2018-06-27T03:56:09.807Z,102685.88
2018-06-27T03:58:38.920Z,102685.78
2018-06-27T04:01:09.149Z,102690.95
2018-06-27T04:03:37.914Z,102689.85
2018-06-27T04:06:07.002Z,102688.80
2018-06-27T04:08:35.296Z,102689.78
2018-06-27T04:11:03.669Z,102695.34
2018-06-27T04:13:32.075Z,102694.19
2018-06-27T04:16:00.961Z,102689.99
2018-06-27T04:18:29.261Z,102691.95
2018-06-27T04:20:57.957Z,102689.30
2018-06-27T04:23:26.241Z,102689.19
2018-06-27T04:25:54.553Z,102691.72
2018-06-27T04:28:22.828Z,102693.98
2018-06-27T04:30:51.136Z,102690.64
2018-06-27T04:33:19.593Z,102691.36
2018-06-27T04:35:47.928Z,102695.45
2018-06-27T04:38:16.873Z,102695.33
2018-06-27T04:40:45.199Z,102697.85
2018-06-27T04:43:13.557Z,102702.95
2018-06-27T04:45:41.832Z,102707.38
2018-06-27T04:48:10.497Z,102708.72
2018-06-27T04:50:45.520Z,102713.50
2018-06-27T04:53:14.895Z,102711.92
2018-06-27T04:55:43.164Z,102714.37
2018-06-27T04:58:11.469Z,102710.78
2018-06-27T05:00:39.768Z,102709.45
2018-06-27T05:03:08.077Z,102712.17
2018-06-27T05:05:36.341Z,102717.69
2018-06-27T05:08:04.645Z,102718.59
2018-06-27T05:10:32.998Z,102711.06
2018-06-27T05:13:01.537Z,102710.53
2018-06-27T05:15:29.816Z,102714.71
2018-06-27T05:17:58.274Z,102713.73
2018-06-27T05:20:26.614Z,102718.09
2018-06-27T05:22:54.936Z,102719.97
2018-06-27T05:25:23.207Z,102720.20
2018-06-27T05:27:51.521Z,102714.11
2018-06-27T05:30:19.777Z,102711.45
2018-06-27T05:32:48.101Z,102715.95
2018-06-27T05:35:16.597Z,102719.58
2018-06-27T05:37:44.875Z,102710.53
2018-06-27T05:40:13.185Z,102714.30
2018-06-27T05:42:41.454Z,102709.83
2018-06-27T05:45:09.917Z,102717.59
2018-06-27T05:47:38.229Z,102720.25
2018-06-27T05:50:06.565Z,102722.13
2018-06-27T05:52:34.862Z,102726.45
2018-06-27T05:55:10.124Z,102724.66
2018-06-27T05:57:40.218Z,102726.39
2018-06-27T06:00:09.560Z,102727.05
2018-06-27T06:02:37.990Z,102732.50
2018-06-27T06:05:06.318Z,102731.67
2018-06-27T06:07:34.657Z,102733.00
2018-06-27T06:10:03.579Z,102732.66
2018-06-27T06:12:31.880Z,102728.45
2018-06-27T06:15:00.196Z,102738.91
2018-06-27T06:17:28.501Z,102736.62
2018-06-27T06:19:56.801Z,102740.05
2018-06-27T06:22:25.092Z,102733.31
2018-06-27T06:24:53.397Z,102735.63
2018-06-27T06:27:21.697Z,102742.25
2018-06-27T06:29:49.969Z,102738.30
2018-06-27T06:32:18.383Z,102738.72
2018-06-27T06:34:46.578Z,102743.62
2018-06-27T06:37:14.870Z,102746.73
2018-06-27T06:39:43.256Z,102746.06
2018-06-27T06:42:11.674Z,102749.25
2018-06-27T06:44:39.937Z,102747.80
2018-06-27T06:47:08.294Z,102755.90
2018-06-27T06:49:36.569Z,102756.17
2018-06-27T06:52:05.228Z,102751.89
2018-06-27T06:54:34.145Z,102762.48
2018-06-27T06:57:02.429Z,102759.10
2018-06-27T06:59:30.760Z,102757.36
2018-06-27T07:01:59.078Z,102758.91
2018-06-27T07:04:27.361Z,102762.96
2018-06-27T07:06:55.726Z,102760.07
2018-06-27T07:09:23.980Z,102760.17
2018-06-27T07:11:52.293Z,102763.47
2018-06-27T07:14:20.555Z,102772.69
2018-06-27T07:16:49.008Z,102780.62
2018-06-27T07:19:17.269Z,102772.20
2018-06-27T07:21:45.636Z,102771.64
2018-06-27T07:24:13.941Z,102771.64
2018-06-27T07:26:42.319Z,102777.52
2018-06-27T07:29:10.597Z,102780.62
2018-06-27T07:31:38.954Z,102782.86
2018-06-27T07:34:07.243Z,102785.14
2018-06-27T07:36:35.638Z,102783.39
2018-06-27T07:39:06.590Z,102776.39
2018-06-27T07:41:34.847Z,102777.61
2018-06-27T07:44:03.146Z,102787.56
2018-06-27T07:46:31.421Z,102795.26
2018-06-27T07:48:59.745Z,102799.73
2018-06-27T07:51:28.014Z,102796.30
2018-06-27T07:53:56.333Z,102790.87
2018-06-27T07:56:24.638Z,102794.16
2018-06-27T07:58:52.998Z,102791.97
2018-06-27T08:01:21.277Z,102792.20
2018-06-27T08:03:49.641Z,102795.25
2018-06-27T08:06:17.898Z,102793.25
2018-06-27T08:08:46.189Z,102787.17
2018-06-27T08:11:14.585Z,102795.69
2018-06-27T08:13:42.958Z,102795.80
2018-06-27T08:16:11.250Z,102794.22
2018-06-27T08:18:41.803Z,102790.28
2018-06-27T08:21:10.389Z,102788.12
2018-06-27T08:23:38.719Z,102791.21
2018-06-27T08:26:07.230Z,102790.72
2018-06-27T08:28:35.550Z,102789.96
2018-06-27T08:31:03.853Z,102784.74
2018-06-27T08:33:32.365Z,102786.41
2018-06-27T08:36:00.666Z,102786.50
2018-06-27T08:38:28.921Z,102788.92
2018-06-27T08:40:57.270Z,102790.69
2018-06-27T08:43:25.862Z,102787.01
2018-06-27T08:45:54.137Z,102792.79
2018-06-27T08:48:22.389Z,102789.51
2018-06-27T08:50:50.661Z,102787.70
2018-06-27T08:53:18.949Z,102783.67
2018-06-27T08:55:47.258Z,102779.19
2018-06-27T08:58:15.574Z,102775.33
2018-06-27T09:00:43.862Z,102777.98
2018-06-27T09:03:12.133Z,102782.44
2018-06-27T09:05:40.415Z,102782.83
2018-06-27T09:08:08.726Z,102779.02
2018-06-27T09:10:36.989Z,102777.77
2018-06-27T09:13:05.398Z,102786.34
2018-06-27T09:15:33.673Z,102783.30
2018-06-27T09:18:01.984Z,102785.37
2018-06-27T09:20:30.286Z,102779.06
2018-06-27T09:22:58.570Z,102785.83
2018-06-27T09:25:26.846Z,102775.97
2018-06-27T09:27:55.165Z,102777.53
2018-06-27T09:30:23.427Z,102779.50
2018-06-27T09:32:51.774Z,102770.25
2018-06-27T09:35:20.055Z,102775.86
2018-06-27T09:37:48.469Z,102773.84
2018-06-27T09:40:16.746Z,102776.80
2018-06-27T09:42:45.102Z,102778.10
2018-06-27T09:45:13.416Z,102772.66
2018-06-27T09:47:41.707Z,102778.67
2018-06-27T09:50:09.977Z,102783.52
2018-06-27T09:52:38.272Z,102778.67
2018-06-27T09:55:06.581Z,102774.99
2018-06-27T09:57:34.947Z,102777.68
2018-06-27T10:00:03.286Z,102775.14
2018-06-27T10:02:31.997Z,102773.66
2018-06-27T10:05:00.362Z,102771.97
2018-06-27T10:07:28.683Z,102769.65
2018-06-27T10:09:56.937Z,102768.11
2018-06-27T10:12:25.214Z,102774.59
2018-06-27T10:14:53.514Z,102773.97
2018-06-27T10:17:21.847Z,102770.23
2018-06-27T10:19:50.141Z,102773.19
2018-06-27T10:22:18.459Z,102766.77
2018-06-27T10:24:46.733Z,102763.50
2018-06-27T10:27:14.988Z,102767.61
2018-06-27T10:29:43.305Z,102761.69
2018-06-27T10:32:11.574Z,102761.52
2018-06-27T10:34:39.854Z,102759.91
2018-06-27T10:37:08.122Z,102758.17
2018-06-27T10:39:36.473Z,102755.23
2018-06-27T10:42:04.801Z,102756.26
2018-06-27T10:44:33.259Z,102766.80
2018-06-27T10:47:01.462Z,102759.77
2018-06-27T10:49:29.752Z,102759.58
2018-06-27T10:51:58.034Z,102753.90
2018-06-27T10:54:26.356Z,102765.59
2018-06-27T10:56:54.635Z,102755.59
2018-06-27T10:59:22.951Z,102760.11
2018-06-27T11:01:51.210Z,102767.19
2018-06-27T11:04:19.485Z,102762.97
2018-06-27T11:06:47.789Z,102758.03
2018-06-27T11:09:16.069Z,102760.59
2018-06-27T11:11:44.357Z,102757.73
2018-06-27T11:14:12.878Z,102747.52
2018-06-27T11:16:41.114Z,102749.41
2018-06-27T11:19:09.374Z,102755.27
2018-06-27T11:21:37.688Z,102746.80
2018-06-27T11:24:06.329Z,102749.09
2018-06-27T11:26:34.646Z,102743.89
2018-06-27T11:29:02.917Z,102743.78
2018-06-27T11:31:31.230Z,102742.05
2018-06-27T11:33:59.527Z,102745.13
2018-06-27T11:36:28.077Z,102741.22
2018-06-27T11:38:56.352Z,102739.75
2018-06-27T11:41:24.689Z,102735.98
2018-06-27T11:43:52.954Z,102741.96
2018-06-27T11:46:21.253Z,102738.76
2018-06-27T11:48:49.514Z,102742.79
2018-06-27T11:51:17.805Z,102738.84
2018-06-27T11:53:46.118Z,102731.62
2018-06-27T11:56:14.450Z,102738.52
2018-06-27T11:58:42.748Z,102737.89
2018-06-27T12:01:11.061Z,102737.39
2018-06-27T12:03:39.357Z,102735.75
2018-06-27T12:06:07.661Z,102738.64
2018-06-27T12:08:35.974Z,102740.10
2018-06-27T12:11:04.213Z,102743.70
2018-06-27T12:13:32.517Z,102743.78
2018-06-27T12:16:00.781Z,102738.34
2018-06-27T12:18:29.054Z,102738.09
2018-06-27T12:20:57.305Z,102729.00
2018-06-27T12:23:25.581Z,102734.70
2018-06-27T12:25:53.929Z,102736.45
2018-06-27T12:28:22.219Z,102728.27
2018-06-27T12:30:50.475Z,102728.90
2018-06-27T12:33:18.749Z,102724.74
2018-06-27T12:35:47.029Z,102727.40
2018-06-27T12:38:15.349Z,102731.94
2018-06-27T12:40:43.685Z,102728.35
2018-06-27T12:43:12.072Z,102737.02
2018-06-27T12:45:40.354Z,102722.89
2018-06-27T12:48:08.607Z,102732.11
2018-06-27T12:50:36.896Z,102729.02
2018-06-27T12:53:05.484Z,102722.52
2018-06-27T12:55:33.769Z,102722.94
2018-06-27T12:58:02.159Z,102726.50
2018-06-27T13:00:30.491Z,102728.88
2018-06-27T13:02:58.741Z,102726.70
2018-06-27T13:05:27.090Z,102728.70
2018-06-27T13:07:55.365Z,102723.55
2018-06-27T13:10:23.825Z,102719.17
2018-06-27T13:12:52.077Z,102719.10
2018-06-27T13:15:20.374Z,102720.10
2018-06-27T13:17:48.637Z,102716.39
2018-06-27T13:20:16.953Z,102717.19
2018-06-27T13:22:45.210Z,102721.13
2018-06-27T13:25:13.533Z,102712.09
2018-06-27T13:27:41.854Z,102713.99
2018-06-27T13:30:10.146Z,102714.54
2018-06-27T13:32:38.422Z,102721.81
2018-06-27T13:35:07.073Z,102726.09
2018-06-27T13:37:35.373Z,102725.95
2018-06-27T13:40:03.802Z,102730.77
2018-06-27T13:42:32.081Z,102720.66
2018-06-27T13:45:00.402Z,102721.14
2018-06-27T13:47:28.705Z,102710.84
2018-06-27T13:49:57.015Z,102706.77
2018-06-27T13:52:25.421Z,102707.91
2018-06-27T13:54:56.719Z,102701.30
2018-06-27T13:57:26.145Z,102703.55
2018-06-27T13:59:54.477Z,102701.90
2018-06-27T14:02:22.797Z,102692.73
2018-06-27T14:04:51.358Z,102687.43
2018-06-27T14:07:19.786Z,102695.44
2018-06-27T14:09:48.075Z,102695.92
2018-06-27T14:12:16.393Z,102693.47
2018-06-27T14:14:44.691Z,102688.84
2018-06-27T14:17:13.006Z,102689.50
2018-06-27T14:19:41.382Z,102701.25
2018-06-27T14:22:10.047Z,102703.08
2018-06-27T14:24:39.107Z,102689.55
2018-06-27T14:27:07.429Z,102691.72
2018-06-27T14:29:35.727Z,102688.60
2018-06-27T14:32:04.014Z,102694.70
2018-06-27T14:34:32.332Z,102695.58
2018-06-27T14:37:00.618Z,102690.30
2018-06-27T14:39:28.913Z,102680.74
2018-06-27T14:41:57.170Z,102688.02
2018-06-27T14:44:25.484Z,102680.08
2018-06-27T14:46:53.787Z,102679.88
2018-06-27T14:49:22.135Z,102686.97
2018-06-27T14:51:50.449Z,102684.50
2018-06-27T14:54:18.781Z,102680.37
2018-06-27T14:56:49.805Z,102679.39
2018-06-27T14:59:18.126Z,102686.95
2018-06-27T15:01:46.450Z,102681.21
2018-06-27T15:04:14.769Z,102679.79
2018-06-27T15:06:43.069Z,102671.05
2018-06-27T15:09:11.588Z,102680.95
2018-06-27T15:11:39.869Z,102676.34
2018-06-27T15:14:08.196Z,102679.35
2018-06-27T15:16:36.494Z,102678.76
2018-06-27T15:19:04.810Z,102678.44
2018-06-27T15:21:33.108Z,102675.62
2018-06-27T15:24:01.398Z,102671.77
2018-06-27T15:26:29.686Z,102666.44
2018-06-27T15:28:57.965Z,102662.42
2018-06-27T15:31:26.307Z,102658.59
2018-06-27T15:33:54.613Z,102661.45
2018-06-27T15:36:22.926Z,102650.52
2018-06-27T15:38:51.225Z,102661.55
2018-06-27T15:41:19.562Z,102653.84
2018-06-27T15:43:47.984Z,102650.82
2018-06-27T15:46:16.375Z,102650.59
2018-06-27T15:48:44.658Z,102644.31
2018-06-27T15:51:12.985Z,102646.77
2018-06-27T15:53:41.285Z,102651.17
2018-06-27T15:56:09.615Z,102653.86
2018-06-27T15:58:37.941Z,102651.88
2018-06-27T16:01:06.469Z,102651.41
2018-06-27T16:03:34.761Z,102646.28
2018-06-27T16:06:04.109Z,102637.14
2018-06-27T16:08:32.430Z,102637.42
2018-06-27T16:11:00.765Z,102640.78
2018-06-27T16:13:29.163Z,102637.58
2018-06-27T16:15:57.457Z,102631.95
2018-06-27T16:18:25.854Z,102629.24
2018-06-27T16:20:54.122Z,102631.18
2018-06-27T16:23:22.409Z,102631.72
2018-06-27T16:25:50.729Z,102621.85
2018-06-27T16:28:19.049Z,102627.52
2018-06-27T16:30:47.318Z,102619.13
2018-06-27T16:33:15.654Z,102619.16
2018-06-27T16:35:43.944Z,102633.20
2018-06-27T16:38:12.376Z,102626.44
2018-06-27T16:40:40.933Z,102628.15
2018-06-27T16:43:09.291Z,102626.89
2018-06-27T16:45:37.550Z,102634.98
2018-06-27T16:48:06.452Z,102635.27
2018-06-27T16:50:34.979Z,102639.06
2018-06-27T16:53:03.669Z,102637.11
2018-06-27T16:55:32.023Z,102640.73
2018-06-27T16:58:00.313Z,102640.44
2018-06-27T17:00:28.973Z,102645.56
2018-06-27T17:02:57.710Z,102643.78
2018-06-27T17:05:26.666Z,102643.31
2018-06-27T17:07:55.379Z,102640.41
2018-06-27T17:10:23.661Z,102650.84
2018-06-27T17:12:52.120Z,102652.78
2018-06-27T17:15:20.393Z,102650.02
2018-06-27T17:17:48.962Z,102655.31
2018-06-27T17:20:17.606Z,102656.04
2018-06-27T17:22:46.267Z,102656.65
2018-06-27T17:25:14.658Z,102655.94
2018-06-27T17:27:42.949Z,102663.47
2018-06-27T17:30:11.399Z,102664.32
2018-06-27T17:32:39.715Z,102663.89
2018-06-27T17:35:09.060Z,102662.48
2018-06-27T17:37:37.370Z,102655.92
2018-06-27T17:40:06.187Z,102659.27
2018-06-27T17:42:34.500Z,102660.23
2018-06-27T17:45:02.815Z,102665.55
2018-06-27T17:47:31.085Z,102663.30
2018-06-27T17:49:59.430Z,102666.09
2018-06-27T17:52:28.020Z,102673.68
2018-06-27T17:54:56.645Z,102672.84
2018-06-27T17:57:24.898Z,102674.00
2018-06-27T17:59:53.469Z,102668.02
2018-06-27T18:02:21.802Z,102672.54
2018-06-27T18:04:50.261Z,102677.64
2018-06-27T18:07:22.280Z,102676.98
2018-06-27T18:09:50.752Z,102683.98
2018-06-27T18:12:19.073Z,102675.22
2018-06-27T18:14:47.349Z,102683.19
2018-06-27T18:17:15.657Z,102681.45
2018-06-27T18:19:43.972Z,102685.38
2018-06-27T18:22:12.282Z,102675.52
2018-06-27T18:24:40.541Z,102681.82
2018-06-27T18:27:08.862Z,102686.63
2018-06-27T18:29:37.119Z,102683.73
2018-06-27T18:32:05.511Z,102688.97
2018-06-27T18:34:33.753Z,102686.71
2018-06-27T18:37:02.061Z,102692.83
2018-06-27T18:39:30.310Z,102692.50
2018-06-27T18:41:58.614Z,102695.35
2018-06-27T18:44:26.874Z,102692.30
2018-06-27T18:46:55.228Z,102693.19
2018-06-27T18:49:23.504Z,102697.13
2018-06-27T18:51:51.834Z,102698.34
2018-06-27T18:54:20.139Z,102692.72
2018-06-27T18:56:48.492Z,102688.98
2018-06-27T18:59:16.902Z,102695.58
2018-06-27T19:01:45.202Z,102694.89
2018-06-27T19:04:13.516Z,102694.15
2018-06-27T19:06:41.789Z,102700.10
2018-06-27T19:09:11.866Z,102696.75
2018-06-27T19:11:41.858Z,102702.47
2018-06-27T19:14:10.161Z,102709.80
2018-06-27T19:16:38.441Z,102707.47
2018-06-27T19:19:06.908Z,102714.28
2018-06-27T19:21:35.086Z,102713.41
2018-06-27T19:24:03.442Z,102717.34
2018-06-27T19:26:31.718Z,102715.02
2018-06-27T19:29:00.056Z,102715.28
2018-06-27T19:31:28.309Z,102720.48
2018-06-27T19:33:56.649Z,102721.82
2018-06-27T19:36:24.918Z,102724.44
2018-06-27T19:38:53.285Z,102721.94
2018-06-27T19:41:21.700Z,102721.49
2018-06-27T19:43:49.902Z,102728.03
2018-06-27T19:46:18.169Z,102727.61
2018-06-27T19:48:46.429Z,102729.88
2018-06-27T19:51:14.707Z,102718.96
2018-06-27T19:53:43.009Z,102727.92
2018-06-27T19:56:11.306Z,102718.20
2018-06-27T19:58:39.581Z,102726.11
2018-06-27T20:01:07.986Z,102725.77
2018-06-27T20:03:36.277Z,102730.95
2018-06-27T20:06:04.565Z,102728.98
2018-06-27T20:08:32.861Z,102730.53
2018-06-27T20:11:01.185Z,102723.33
2018-06-27T20:13:29.442Z,102727.41
2018-06-27T20:15:57.751Z,102729.91
2018-06-27T20:18:26.015Z,102731.53
2018-06-27T20:20:54.322Z,102730.74
2018-06-27T20:23:22.866Z,102734.23
2018-06-27T20:25:51.159Z,102726.50
2018-06-27T20:28:19.406Z,102730.39
2018-06-27T20:30:47.693Z,102730.39
2018-06-27T20:33:16.031Z,102734.86
2018-06-27T20:35:44.359Z,102733.73
2018-06-27T20:38:12.673Z,102737.42
2018-06-27T20:40:40.956Z,102732.23
2018-06-27T20:43:09.374Z,102731.55
2018-06-27T20:45:37.661Z,102731.70
2018-06-27T20:48:05.999Z,102729.69
2018-06-27T20:50:34.293Z,102734.77
2018-06-27T20:53:03.065Z,102735.33
2018-06-27T20:55:31.514Z,102735.80
2018-06-27T20:58:00.013Z,102736.44
2018-06-27T21:00:28.438Z,102733.91
2018-06-27T21:02:56.758Z,102733.58
2018-06-27T21:05:25.077Z,102734.73
2018-06-27T21:07:53.413Z,102731.63
2018-06-27T21:10:21.658Z,102737.39
2018-06-27T21:12:50.007Z,102740.75
2018-06-27T21:15:18.285Z,102740.08
2018-06-27T21:17:46.590Z,102736.86
2018-06-27T21:20:14.845Z,102740.66
2018-06-27T21:22:43.253Z,102744.31
2018-06-27T21:25:11.513Z,102743.41
2018-06-27T21:27:39.974Z,102742.98
2018-06-27T21:30:09.072Z,102742.53
2018-06-27T21:32:37.539Z,102742.00
2018-06-27T21:35:06.244Z,102749.03
2018-06-27T21:37:34.502Z,102750.66
2018-06-27T21:40:03.031Z,102759.19
2018-06-27T21:42:31.309Z,102760.20
2018-06-27T21:44:59.662Z,102759.16
2018-06-27T21:47:27.945Z,102757.72
2018-06-27T21:49:56.242Z,102759.69
2018-06-27T21:52:24.560Z,102756.73
2018-06-27T21:54:52.885Z,102758.56
2018-06-27T21:57:21.173Z,102755.45
2018-06-27T21:59:49.520Z,102763.30
2018-06-27T22:02:17.869Z,102762.56
2018-06-27T22:04:46.282Z,102764.28
2018-06-27T22:07:14.577Z,102769.67
2018-06-27T22:09:42.842Z,102769.79
2018-06-27T22:12:11.417Z,102771.05
2018-06-27T22:14:39.722Z,102769.20
2018-06-27T22:17:08.019Z,102770.52
2018-06-27T22:19:36.286Z,102768.61
2018-06-27T22:22:04.597Z,102769.94
2018-06-27T22:24:33.278Z,102769.05
2018-06-27T22:27:01.654Z,102766.55
2018-06-27T22:29:29.929Z,102771.49
2018-06-27T22:32:01.401Z,102766.93
2018-06-27T22:34:29.678Z,102769.60
2018-06-27T22:37:04.521Z,102776.34
2018-06-27T22:39:32.807Z,102776.59
2018-06-27T22:42:01.306Z,102784.69
2018-06-27T22:44:29.914Z,102777.71
2018-06-27T22:46:58.377Z,102778.55
2018-06-27T22:49:26.783Z,102779.17
2018-06-27T22:51:55.110Z,102783.63
2018-06-27T22:54:23.381Z,102785.56
2018-06-27T22:56:51.706Z,102783.53
2018-06-27T22:59:19.977Z,102785.21
2018-06-27T23:01:48.335Z,102781.59
2018-06-27T23:04:16.866Z,102780.84
2018-06-27T23:06:45.209Z,102778.59
2018-06-27T23:09:13.484Z,102782.34
2018-06-27T23:11:41.766Z,102783.53
2018-06-27T23:14:10.041Z,102776.06
2018-06-27T23:16:38.385Z,102781.63
2018-06-27T23:19:06.670Z,102785.84
2018-06-27T23:21:34.986Z,102780.88
2018-06-27T23:24:03.296Z,102773.90
2018-06-27T23:26:31.615Z,102776.91
2018-06-27T23:28:59.897Z,102771.99
2018-06-27T23:31:28.183Z,102780.19
2018-06-27T23:33:57.393Z,102779.32
2018-06-27T23:36:26.906Z,102780.06
2018-06-27T23:38:55.199Z,102779.45
2018-06-27T23:41:24.029Z,102780.17
2018-06-27T23:43:52.314Z,102779.81
2018-06-27T23:46:20.613Z,102782.10
2018-06-27T23:48:48.949Z,102779.94
2018-06-27T23:51:17.221Z,102780.92
2018-06-27T23:53:45.537Z,102774.64
2018-06-27T23:56:13.813Z,102780.06
2018-06-27T23:58:42.109Z,102774.66
